createdAt,value
2019-05-25T00:02:40.695Z,98049.72
2019-05-25T00:12:55.911Z,98043.03
2019-05-25T00:19:32.823Z,98037.16
2019-05-25T00:26:02.922Z,98035.02
2019-05-25T00:32:29.439Z,98028.13
2019-05-25T00:38:34.371Z,98026.94
2019-05-25T00:45:01.887Z,98029.39
2019-05-25T00:51:30.047Z,98035.64
2019-05-25T00:57:55.637Z,98034.40
2019-05-25T01:04:32.546Z,98029.39
2019-05-25T01:14:33.745Z,98033.76
2019-05-25T01:20:59.569Z,98033.73
2019-05-25T01:27:27.417Z,98028.55
2019-05-25T01:37:19.067Z,98034.48
2019-05-25T01:43:55.978Z,98035.48
2019-05-25T01:50:24.700Z,98041.61
2019-05-25T01:56:54.640Z,98046.36
2019-05-25T02:03:22.541Z,98051.38
2019-05-25T02:10:01.499Z,98048.58
2019-05-25T02:16:17.418Z,98049.30
2019-05-25T02:22:43.238Z,98059.42
2019-05-25T02:29:09.058Z,98055.47
2019-05-25T02:35:45.989Z,98058.13
2019-05-25T02:42:13.613Z,98055.67
2019-05-25T02:48:40.655Z,98058.80
2019-05-25T02:55:33.640Z,98057.47
2019-05-25T03:01:49.468Z,98053.45
2019-05-25T03:08:22.818Z,98053.56
2019-05-25T03:18:24.182Z,98059.73
2019-05-25T03:25:03.084Z,98057.05
2019-05-25T03:31:33.186Z,98062.59
2019-05-25T03:37:23.608Z,98060.77
2019-05-25T03:43:53.399Z,98065.00
2019-05-25T03:50:30.398Z,98063.91
2019-05-25T03:56:56.217Z,98065.55
2019-05-25T04:03:21.795Z,98068.77
2019-05-25T04:09:49.876Z,98057.96
2019-05-25T04:20:03.959Z,98073.80
2019-05-25T04:26:40.886Z,98078.54
2019-05-25T04:33:06.452Z,98079.55
2019-05-25T04:38:58.191Z,98079.35
2019-05-25T04:45:39.198Z,98088.61
2019-05-25T04:52:04.749Z,98097.52
2019-05-25T04:58:30.602Z,98093.73
2019-05-25T05:04:57.272Z,98093.82
2019-05-25T05:11:38.276Z,98103.40
2019-05-25T05:21:42.591Z,98097.78
2019-05-25T05:28:07.397Z,98096.83
2019-05-25T05:34:37.010Z,98110.06
2019-05-25T05:41:21.280Z,98115.09
2019-05-25T05:47:52.129Z,98119.13
2019-05-25T05:54:18.738Z,98118.78
2019-05-25T06:00:44.584Z,98113.13
2019-05-25T06:07:21.487Z,98119.96
2019-05-25T06:13:52.581Z,98122.06
2019-05-25T06:24:09.691Z,98133.50
2019-05-25T06:30:34.495Z,98128.18
2019-05-25T06:36:57.960Z,98128.42
2019-05-25T06:43:26.149Z,98131.67
2019-05-25T06:49:53.749Z,98137.52
2019-05-25T06:56:17.545Z,98149.55
2019-05-25T07:02:56.573Z,98143.34
2019-05-25T07:09:20.310Z,98142.38
2019-05-25T07:15:46.977Z,98145.69
2019-05-25T07:25:25.759Z,98161.72
2019-05-25T07:31:51.905Z,98162.19
2019-05-25T07:37:53.287Z,98160.89
2019-05-25T07:44:19.957Z,98150.69
2019-05-25T07:50:50.179Z,98162.73
2019-05-25T07:57:29.130Z,98172.34
2019-05-25T08:04:03.724Z,98184.08
2019-05-25T08:10:29.860Z,98182.01
2019-05-25T08:16:57.704Z,98176.56
2019-05-25T08:27:11.780Z,98177.63
2019-05-25T08:33:48.755Z,98185.10
2019-05-25T08:40:15.457Z,98172.94
2019-05-25T08:46:40.362Z,98164.79
2019-05-25T08:53:23.189Z,98172.77
2019-05-25T08:59:46.933Z,98164.88
2019-05-25T09:06:14.645Z,98175.00
2019-05-25T09:12:43.841Z,98166.47
2019-05-25T09:19:22.790Z,98180.55
2019-05-25T09:32:23.527Z,98168.80
2019-05-25T09:39:05.499Z,98169.71
2019-05-25T09:45:32.124Z,98169.73
2019-05-25T09:52:00.840Z,98172.56
2019-05-25T09:58:40.135Z,98167.55
2019-05-25T10:05:12.017Z,98171.02
2019-05-25T10:11:38.839Z,98166.56
2019-05-25T10:18:07.594Z,98162.26
2019-05-25T10:24:52.315Z,98159.97
2019-05-25T10:34:52.644Z,98157.98
2019-05-25T10:41:18.217Z,98157.51
2019-05-25T10:47:46.101Z,98145.77
2019-05-25T10:54:26.260Z,98138.96
2019-05-25T11:00:56.123Z,98127.36
2019-05-25T11:07:21.940Z,98125.47
2019-05-25T11:13:58.874Z,98118.34
2019-05-25T11:20:24.432Z,98112.39
2019-05-25T11:26:52.331Z,98112.86
2019-05-25T11:36:55.272Z,98098.53
2019-05-25T11:43:21.122Z,98098.01
2019-05-25T11:49:58.042Z,98090.41
2019-05-25T11:56:25.079Z,98095.73
2019-05-25T12:02:50.918Z,98090.55
2019-05-25T12:09:20.764Z,98085.14
2019-05-25T12:15:51.271Z,98090.16
2019-05-25T12:22:17.456Z,98079.16
2019-05-25T12:28:48.316Z,98067.21
2019-05-25T12:38:13.546Z,98066.69
2019-05-25T12:44:53.879Z,98062.38
2019-05-25T12:51:20.715Z,98059.16
2019-05-25T12:57:51.496Z,98063.57
2019-05-25T13:04:19.071Z,98049.24
2019-05-25T13:11:02.927Z,98054.83
2019-05-25T13:17:27.154Z,98048.34
2019-05-25T13:24:00.109Z,98047.50
2019-05-25T13:30:39.736Z,98041.34
2019-05-25T13:40:39.814Z,98037.69
2019-05-25T13:47:03.821Z,98034.15
2019-05-25T13:53:33.030Z,98027.84
2019-05-25T13:59:58.491Z,98026.28
2019-05-25T14:06:37.439Z,98024.95
2019-05-25T14:13:03.269Z,98017.53
2019-05-25T14:19:27.057Z,98021.25
2019-05-25T14:26:05.749Z,98023.91
2019-05-25T14:32:33.647Z,98034.73
2019-05-25T14:42:34.798Z,98020.14
2019-05-25T14:49:02.445Z,98019.34
2019-05-25T14:54:52.100Z,98026.80
2019-05-25T15:01:29.036Z,98027.14
2019-05-25T15:07:56.639Z,98020.19
2019-05-25T15:14:22.688Z,98029.84
2019-05-25T15:20:52.443Z,98025.71
2019-05-25T15:27:32.508Z,98025.02
2019-05-25T15:34:00.111Z,98029.63
2019-05-25T15:44:03.321Z,98029.08
2019-05-25T15:50:30.955Z,98025.88
2019-05-25T15:57:09.908Z,98033.38
2019-05-25T16:03:38.623Z,98039.44
2019-05-25T16:10:06.816Z,98046.25
2019-05-25T16:13:46.892Z,98044.03
2019-05-25T16:20:15.838Z,98054.80
2019-05-25T16:26:55.814Z,98057.87
2019-05-25T16:33:23.643Z,98069.14
2019-05-25T16:39:49.460Z,98080.57
2019-05-25T16:46:03.933Z,98084.38
2019-05-25T16:52:44.937Z,98088.45
2019-05-25T16:59:12.009Z,98090.38
2019-05-25T17:05:37.789Z,98098.82
2019-05-25T17:12:16.406Z,98104.03
2019-05-25T17:18:42.561Z,98107.91
2019-05-25T17:25:08.378Z,98123.19
2019-05-25T17:31:35.482Z,98142.02
2019-05-25T17:38:12.910Z,98150.33
2019-05-25T17:48:04.798Z,98166.28
2019-05-25T17:54:18.716Z,98183.36
2019-05-25T18:00:52.607Z,98184.99
2019-05-25T18:07:19.443Z,98186.11
2019-05-25T18:13:58.391Z,98189.98
2019-05-25T18:20:26.227Z,98179.37
2019-05-25T18:26:52.048Z,98175.68
2019-05-25T18:33:32.781Z,98157.45
2019-05-25T18:39:58.629Z,98138.12
2019-05-25T18:49:59.787Z,98133.42
2019-05-25T18:55:51.269Z,98144.17
2019-05-25T19:02:20.121Z,98158.14
2019-05-25T19:08:59.874Z,98163.22
2019-05-25T19:15:15.801Z,98167.14
2019-05-25T19:21:08.292Z,98172.21
2019-05-25T19:27:33.101Z,98176.98
2019-05-25T19:34:09.682Z,98186.62
2019-05-25T19:40:39.950Z,98193.42
2019-05-25T19:50:56.144Z,98210.20
2019-05-25T19:56:45.445Z,98213.69
2019-05-25T20:03:13.286Z,98219.67
2019-05-25T20:09:52.241Z,98224.23
2019-05-25T20:16:24.927Z,98232.72
2019-05-25T20:22:50.592Z,98240.45
2019-05-25T20:29:27.498Z,98246.16
2019-05-25T20:35:53.702Z,98249.27
2019-05-25T20:42:21.540Z,98251.60
2019-05-25T20:52:00.021Z,98255.87
2019-05-25T20:58:25.875Z,98269.30
2019-05-25T21:05:02.793Z,98269.48
2019-05-25T21:15:15.077Z,98273.48
2019-05-25T21:21:42.926Z,98277.36
2019-05-25T21:28:06.720Z,98280.41
2019-05-25T21:34:47.446Z,98280.17
2019-05-25T21:41:20.418Z,98281.33
2019-05-25T21:47:46.404Z,98278.97
2019-05-25T21:53:42.928Z,98283.84
2019-05-25T22:00:29.959Z,98288.33
2019-05-25T22:06:57.799Z,98284.91
2019-05-25T22:13:28.280Z,98286.72
2019-05-25T22:20:02.321Z,98283.80
2019-05-25T22:26:28.167Z,98281.05
2019-05-25T22:32:56.885Z,98280.56
2019-05-25T22:39:23.059Z,98281.16
2019-05-25T22:46:02.011Z,98277.00
2019-05-25T22:55:31.046Z,98271.53
2019-05-25T23:01:20.862Z,98263.67
2019-05-25T23:07:48.749Z,98264.61
2019-05-25T23:14:15.803Z,98269.23
2019-05-25T23:20:56.749Z,98258.33
2019-05-25T23:27:22.568Z,98266.09
2019-05-25T23:33:50.171Z,98267.25
2019-05-25T23:40:31.177Z,98259.59
2019-05-25T23:46:54.980Z,98264.54
2019-05-25T23:56:32.524Z,98253.80
